createdAt,value
2018-02-20T00:00:02.319Z,33.53
2018-02-20T00:02:30.647Z,33.20
2018-02-20T00:04:59.006Z,32.67
2018-02-20T00:07:27.335Z,34.07
2018-02-20T00:09:55.674Z,35.53
2018-02-20T00:12:24.080Z,36.07
2018-02-20T00:14:52.418Z,31.97
2018-02-20T00:17:20.770Z,34.87
2018-02-20T00:19:49.184Z,36.37
2018-02-20T00:22:17.567Z,35.37
2018-02-20T00:24:45.916Z,36.67
2018-02-20T00:27:14.248Z,35.53
2018-02-20T00:29:42.588Z,35.13
2018-02-20T00:32:10.923Z,36.93
2018-02-20T00:34:39.281Z,36.30
2018-02-20T00:37:07.613Z,36.27
2018-02-20T00:39:35.959Z,35.27
2018-02-20T00:42:04.297Z,37.37
2018-02-20T00:44:32.648Z,38.60
2018-02-20T00:47:00.978Z,38.27
2018-02-20T00:49:29.338Z,37.63
2018-02-20T00:51:57.674Z,37.23
2018-02-20T00:54:26.042Z,35.93
2018-02-20T00:56:54.378Z,40.40
2018-02-20T00:59:22.717Z,38.57
2018-02-20T01:01:51.062Z,37.97
2018-02-20T01:04:19.399Z,36.50
2018-02-20T01:06:47.737Z,38.10
2018-02-20T01:09:16.179Z,39.70
2018-02-20T01:11:44.595Z,39.73
2018-02-20T01:14:12.999Z,40.03
2018-02-20T01:16:41.410Z,39.10
2018-02-20T01:19:09.754Z,38.57
2018-02-20T01:21:38.067Z,37.77
2018-02-20T01:24:06.419Z,37.13
2018-02-20T01:26:34.748Z,38.90
2018-02-20T01:29:03.093Z,38.67
2018-02-20T01:31:31.422Z,39.03
2018-02-20T01:33:59.766Z,37.30
2018-02-20T01:36:28.092Z,40.83
2018-02-20T01:38:56.434Z,39.03
2018-02-20T01:41:24.787Z,39.57
2018-02-20T01:43:53.120Z,38.53
2018-02-20T01:46:21.549Z,37.13
2018-02-20T01:48:49.888Z,39.40
2018-02-20T01:51:18.227Z,39.43
2018-02-20T01:53:46.568Z,40.70
2018-02-20T01:56:14.898Z,38.87
2018-02-20T01:58:43.407Z,35.33
2018-02-20T02:01:11.778Z,40.50
2018-02-20T02:03:40.122Z,38.47
2018-02-20T02:06:08.466Z,36.87
2018-02-20T02:08:36.852Z,39.30
2018-02-20T02:11:05.186Z,38.23
2018-02-20T02:13:33.527Z,38.63
2018-02-20T02:16:01.882Z,38.33
2018-02-20T02:18:30.209Z,40.47
2018-02-20T02:20:58.559Z,37.47
2018-02-20T02:23:26.896Z,37.83
2018-02-20T02:25:55.264Z,39.47
2018-02-20T02:28:23.599Z,39.90
2018-02-20T02:30:51.942Z,40.90
2018-02-20T02:33:20.269Z,39.90
2018-02-20T02:35:48.613Z,36.97
2018-02-20T02:38:16.949Z,39.03
2018-02-20T02:40:45.274Z,38.83
2018-02-20T02:43:13.702Z,37.33
2018-02-20T02:45:42.062Z,36.43
2018-02-20T02:48:10.440Z,35.40
2018-02-20T02:50:38.790Z,35.87
2018-02-20T02:53:07.150Z,36.80
2018-02-20T02:55:35.501Z,38.33
2018-02-20T02:58:03.832Z,36.07
2018-02-20T03:00:32.208Z,36.93
2018-02-20T03:03:00.540Z,36.60
2018-02-20T03:05:28.890Z,34.83
2018-02-20T03:07:57.307Z,39.70
2018-02-20T03:10:25.639Z,36.00
2018-02-20T03:12:53.975Z,37.63
2018-02-20T03:15:22.326Z,33.40
2018-02-20T03:17:50.763Z,38.10
2018-02-20T03:20:19.124Z,37.37
2018-02-20T03:22:47.457Z,35.10
2018-02-20T03:25:15.814Z,35.30
2018-02-20T03:27:44.149Z,33.87
2018-02-20T03:30:12.535Z,34.47
2018-02-20T03:32:40.866Z,34.70
2018-02-20T03:35:09.212Z,34.93
2018-02-20T03:37:37.610Z,34.67
2018-02-20T03:40:05.943Z,38.07
2018-02-20T03:42:34.275Z,36.13
2018-02-20T03:45:02.707Z,36.37
2018-02-20T03:47:31.127Z,34.70
2018-02-20T03:49:59.707Z,32.83
2018-02-20T03:52:28.035Z,34.53
2018-02-20T03:54:56.383Z,33.80
2018-02-20T03:57:24.829Z,34.90
2018-02-20T03:59:53.170Z,35.13
2018-02-20T04:02:21.605Z,32.97
2018-02-20T04:04:49.943Z,33.27
2018-02-20T04:07:18.302Z,31.40
2018-02-20T04:09:46.634Z,31.40
2018-02-20T04:12:14.998Z,34.07
2018-02-20T04:14:43.311Z,33.37
2018-02-20T04:17:11.656Z,32.30
2018-02-20T04:19:40.015Z,33.30
2018-02-20T04:22:08.364Z,32.60
2018-02-20T04:24:36.698Z,32.30
2018-02-20T04:27:05.035Z,32.33
2018-02-20T04:29:33.443Z,31.77
2018-02-20T04:32:01.873Z,29.40
2018-02-20T04:34:30.190Z,29.07
2018-02-20T04:36:58.546Z,26.83
2018-02-20T04:39:26.870Z,26.27
2018-02-20T04:41:55.218Z,23.70
2018-02-20T04:44:23.578Z,27.37
2018-02-20T04:46:51.940Z,24.93
2018-02-20T04:49:20.348Z,28.50
2018-02-20T04:51:48.692Z,27.47
2018-02-20T04:54:17.011Z,28.03
2018-02-20T04:56:45.353Z,27.33
2018-02-20T04:59:13.726Z,27.60
2018-02-20T05:01:42.172Z,28.70
2018-02-20T05:04:10.500Z,26.43
2018-02-20T05:06:38.851Z,28.73
2018-02-20T05:09:07.174Z,26.90
2018-02-20T05:11:35.507Z,28.37
2018-02-20T05:14:04.086Z,32.33
2018-02-20T05:16:32.415Z,31.07
2018-02-20T05:19:00.753Z,31.50
2018-02-20T05:21:29.078Z,34.80
2018-02-20T05:23:57.423Z,32.40
2018-02-20T05:26:25.758Z,33.03
2018-02-20T05:28:54.167Z,33.57
2018-02-20T05:31:22.494Z,34.10
2018-02-20T05:33:50.838Z,33.47
2018-02-20T05:36:19.174Z,34.00
2018-02-20T05:38:47.522Z,34.30
2018-02-20T05:41:15.857Z,34.47
2018-02-20T05:43:44.219Z,37.60
2018-02-20T05:46:12.577Z,38.80
2018-02-20T05:48:40.915Z,38.83
2018-02-20T05:51:09.251Z,39.13
2018-02-20T05:53:37.603Z,37.63
2018-02-20T05:56:05.935Z,40.67
2018-02-20T05:58:34.335Z,37.87
2018-02-20T06:01:02.674Z,34.57
2018-02-20T06:03:31.426Z,33.23
2018-02-20T06:05:59.778Z,37.23
2018-02-20T06:08:28.145Z,29.70
2018-02-20T06:10:56.560Z,31.17
2018-02-20T06:13:24.935Z,33.17
2018-02-20T06:15:53.332Z,36.90
2018-02-20T06:18:21.746Z,35.73
2018-02-20T06:20:50.042Z,38.77
2018-02-20T06:23:18.375Z,39.77
2018-02-20T06:25:46.744Z,40.43
2018-02-20T06:28:15.084Z,38.80
2018-02-20T06:30:43.427Z,39.60
2018-02-20T06:33:11.969Z,38.20
2018-02-20T06:35:40.443Z,43.10
2018-02-20T06:38:08.778Z,41.43
2018-02-20T06:40:37.307Z,42.47
2018-02-20T06:43:05.644Z,40.90
2018-02-20T06:45:33.994Z,39.83
2018-02-20T06:48:02.375Z,41.83
2018-02-20T06:50:30.706Z,40.27
2018-02-20T06:52:59.064Z,42.23
2018-02-20T06:55:27.470Z,41.13
2018-02-20T06:57:55.837Z,39.47
2018-02-20T07:00:24.175Z,42.60
2018-02-20T07:02:52.598Z,44.17
2018-02-20T07:05:20.928Z,41.77
2018-02-20T07:07:49.260Z,40.30
2018-02-20T07:10:17.621Z,41.77
2018-02-20T07:12:46.019Z,38.43
2018-02-20T07:15:14.385Z,36.43
2018-02-20T07:17:42.709Z,37.37
2018-02-20T07:20:11.067Z,35.17
2018-02-20T07:22:39.414Z,35.50
2018-02-20T07:25:07.794Z,34.23
2018-02-20T07:27:36.118Z,34.30
2018-02-20T07:30:04.518Z,32.60
2018-02-20T07:32:32.830Z,33.03
2018-02-20T07:35:01.230Z,32.00
2018-02-20T07:37:29.577Z,33.57
2018-02-20T07:39:57.908Z,35.67
2018-02-20T07:42:26.261Z,33.87
2018-02-20T07:44:54.589Z,32.73
2018-02-20T07:47:22.959Z,32.77
2018-02-20T07:49:51.295Z,35.33
2018-02-20T07:52:19.706Z,32.33
2018-02-20T07:54:48.079Z,35.13
2018-02-20T07:57:16.455Z,37.80
2018-02-20T07:59:44.799Z,39.20
2018-02-20T08:02:13.122Z,38.70
2018-02-20T08:04:41.480Z,40.20
2018-02-20T08:07:09.804Z,38.60
2018-02-20T08:09:38.162Z,37.37
2018-02-20T08:12:06.520Z,36.93
2018-02-20T08:14:34.886Z,34.20
2018-02-20T08:17:03.245Z,35.60
2018-02-20T08:19:31.608Z,35.00
2018-02-20T08:21:59.934Z,36.47
2018-02-20T08:24:28.277Z,37.13
2018-02-20T08:26:56.839Z,34.80
2018-02-20T08:29:25.186Z,31.87
2018-02-20T08:31:53.511Z,32.70
2018-02-20T08:34:21.905Z,32.63
2018-02-20T08:36:50.211Z,33.27
2018-02-20T08:39:18.544Z,32.50
2018-02-20T08:41:46.891Z,32.30
2018-02-20T08:44:15.239Z,30.20
2018-02-20T08:46:43.614Z,31.70
2018-02-20T08:49:11.992Z,31.87
2018-02-20T08:51:40.370Z,34.90
2018-02-20T08:54:08.772Z,33.20
2018-02-20T08:56:37.202Z,32.20
2018-02-20T08:59:05.565Z,37.13
2018-02-20T09:01:33.934Z,35.70
2018-02-20T09:04:02.329Z,34.07
2018-02-20T09:06:30.700Z,35.97
2018-02-20T09:08:59.061Z,38.97
2018-02-20T09:11:27.385Z,36.10
2018-02-20T09:13:55.731Z,37.30
2018-02-20T09:18:58.646Z,29.63
2018-02-20T09:21:27.028Z,28.33
2018-02-20T09:23:55.381Z,26.13
2018-02-20T09:26:23.696Z,22.87
2018-02-20T09:28:52.967Z,25.30
2018-02-20T09:31:21.399Z,28.33
2018-02-20T09:33:49.707Z,28.00
2018-02-20T09:36:18.041Z,27.63
2018-02-20T09:38:46.431Z,27.80
2018-02-20T09:41:14.755Z,27.97
2018-02-20T09:43:43.085Z,32.30
2018-02-20T09:46:11.418Z,33.97
2018-02-20T09:48:39.746Z,34.97
2018-02-20T09:51:08.212Z,33.43
2018-02-20T09:53:36.522Z,33.37
2018-02-20T09:56:04.870Z,35.50
2018-02-20T09:58:33.200Z,35.03
2018-02-20T10:01:02.248Z,35.80
2018-02-20T10:03:30.570Z,34.13
2018-02-20T10:05:58.919Z,36.70
2018-02-20T10:08:27.235Z,37.10
2018-02-20T10:10:55.613Z,35.50
2018-02-20T10:13:23.919Z,33.40
2018-02-20T10:15:52.255Z,33.10
2018-02-20T10:18:20.659Z,36.90
2018-02-20T10:20:49.001Z,37.27
2018-02-20T10:23:17.348Z,35.50
2018-02-20T10:25:45.983Z,36.50
2018-02-20T10:28:14.310Z,34.10
2018-02-20T10:30:42.740Z,36.57
2018-02-20T10:33:11.092Z,34.60
2018-02-20T10:35:39.414Z,31.47
2018-02-20T10:38:07.758Z,33.00
2018-02-20T10:40:37.112Z,34.10
2018-02-20T10:43:05.484Z,33.00
2018-02-20T10:45:33.839Z,24.30
2018-02-20T10:48:02.205Z,26.43
2018-02-20T10:50:30.729Z,28.73
2018-02-20T10:52:59.093Z,28.60
2018-02-20T10:55:27.440Z,33.17
2018-02-20T10:57:55.807Z,31.40
2018-02-20T11:00:24.159Z,30.57
2018-02-20T11:02:52.617Z,23.63
2018-02-20T11:05:20.978Z,23.63
2018-02-20T11:07:49.766Z,26.10
2018-02-20T11:10:18.874Z,20.60
2018-02-20T11:12:47.210Z,19.57
2018-02-20T11:15:15.570Z,23.20
2018-02-20T11:17:43.908Z,23.73
2018-02-20T11:20:12.294Z,24.23
2018-02-20T11:22:40.631Z,21.10
2018-02-20T11:25:09.038Z,24.40
2018-02-20T11:27:37.379Z,26.70
2018-02-20T11:30:05.714Z,25.63
2018-02-20T11:32:34.173Z,27.97
2018-02-20T11:35:02.520Z,27.80
2018-02-20T11:37:30.883Z,25.30
2018-02-20T11:39:59.222Z,21.57
2018-02-20T11:42:27.582Z,25.60
2018-02-20T11:44:55.918Z,25.10
2018-02-20T11:47:24.323Z,25.73
2018-02-20T11:49:52.650Z,24.23
2018-02-20T11:52:21.010Z,25.63
2018-02-20T11:54:49.350Z,25.97
2018-02-20T11:57:17.718Z,27.03
2018-02-20T11:59:47.067Z,24.90
2018-02-20T12:02:15.398Z,27.40
2018-02-20T12:04:43.772Z,27.07
2018-02-20T12:07:12.120Z,28.00
2018-02-20T12:09:41.904Z,30.60
2018-02-20T12:12:10.262Z,29.00
2018-02-20T12:14:38.638Z,32.77
2018-02-20T12:17:06.989Z,33.37
2018-02-20T12:19:35.355Z,30.13
2018-02-20T12:22:04.674Z,28.73
2018-02-20T12:24:33.039Z,29.77
2018-02-20T12:27:01.380Z,27.20
2018-02-20T12:29:29.715Z,27.63
2018-02-20T12:31:58.107Z,26.13
2018-02-20T12:34:27.179Z,26.40
2018-02-20T12:36:55.535Z,26.27
2018-02-20T12:39:23.860Z,28.03
2018-02-20T12:41:52.228Z,25.67
2018-02-20T12:44:20.563Z,25.80
2018-02-20T12:46:49.011Z,28.47
2018-02-20T12:49:17.396Z,26.60
2018-02-20T12:51:45.962Z,29.87
2018-02-20T12:54:14.360Z,27.23
2018-02-20T12:56:42.696Z,27.60
2018-02-20T12:59:11.794Z,28.90
2018-02-20T13:01:40.118Z,26.97
2018-02-20T13:04:08.582Z,27.73
2018-02-20T13:06:36.927Z,26.60
2018-02-20T13:09:05.296Z,24.20
2018-02-20T13:11:33.635Z,24.60
2018-02-20T13:14:01.996Z,24.93
2018-02-20T13:16:30.332Z,23.00
2018-02-20T13:18:58.685Z,21.93
2018-02-20T13:21:27.035Z,21.27
2018-02-20T13:23:55.391Z,20.23
2018-02-20T13:26:23.744Z,19.53
2018-02-20T13:28:52.096Z,16.10
2018-02-20T13:31:20.447Z,16.37
2018-02-20T13:33:48.832Z,19.57
2018-02-20T13:36:17.208Z,15.97
2018-02-20T13:38:46.549Z,16.00
2018-02-20T13:41:14.918Z,15.53
2018-02-20T13:43:43.257Z,17.13
2018-02-20T13:46:11.636Z,14.27
2018-02-20T13:48:40.023Z,16.37
2018-02-20T13:51:09.614Z,17.03
2018-02-20T13:53:37.956Z,19.83
2018-02-20T13:56:06.366Z,19.23
2018-02-20T13:58:34.732Z,21.50
2018-02-20T14:01:03.075Z,23.37
2018-02-20T14:03:31.437Z,24.00
2018-02-20T14:05:59.779Z,24.07
2018-02-20T14:08:28.139Z,24.57
2018-02-20T14:10:56.479Z,23.33
2018-02-20T14:13:24.892Z,23.50
2018-02-20T14:15:53.207Z,23.80
2018-02-20T14:18:21.583Z,24.63
2018-02-20T14:20:49.922Z,23.67
2018-02-20T14:23:18.262Z,24.93
2018-02-20T14:25:46.634Z,24.30
2018-02-20T14:28:15.082Z,24.47
2018-02-20T14:30:43.499Z,23.40
2018-02-20T14:33:11.866Z,23.57
2018-02-20T14:35:40.222Z,23.10
2018-02-20T14:38:08.580Z,23.03
2018-02-20T14:40:37.117Z,22.30
2018-02-20T14:43:05.490Z,24.43
2018-02-20T14:45:33.844Z,23.80
2018-02-20T14:48:02.207Z,25.53
2018-02-20T14:50:30.600Z,25.60
2018-02-20T14:52:58.969Z,24.93
2018-02-20T14:55:27.311Z,24.77
2018-02-20T14:57:57.055Z,25.63
2018-02-20T15:00:25.449Z,26.37
2018-02-20T15:02:53.931Z,25.33
2018-02-20T15:05:22.415Z,26.87
2018-02-20T15:07:50.779Z,27.83
2018-02-20T15:10:19.130Z,27.00
2018-02-20T15:12:47.494Z,27.57
2018-02-20T15:15:15.839Z,27.60
2018-02-20T15:17:44.236Z,28.80
2018-02-20T15:20:12.698Z,27.93
2018-02-20T15:22:41.119Z,26.83
2018-02-20T15:25:09.496Z,30.33
2018-02-20T15:27:37.848Z,25.87
2018-02-20T15:30:06.214Z,28.27
2018-02-20T15:32:34.581Z,32.23
2018-02-20T15:35:02.942Z,31.40
2018-02-20T15:37:31.324Z,34.37
2018-02-20T15:39:59.812Z,32.73
2018-02-20T15:42:28.151Z,35.10
2018-02-20T15:44:56.569Z,36.17
2018-02-20T15:47:24.911Z,34.87
2018-02-20T15:49:53.273Z,36.60
2018-02-20T15:52:21.645Z,35.10
2018-02-20T15:54:49.995Z,36.43
2018-02-20T15:57:18.411Z,35.43
2018-02-20T15:59:46.839Z,34.60
2018-02-20T16:02:15.251Z,33.10
2018-02-20T16:04:43.602Z,34.50
2018-02-20T16:07:11.971Z,37.87
2018-02-20T16:09:40.316Z,37.60
2018-02-20T16:12:08.710Z,35.63
2018-02-20T16:14:37.066Z,37.47
2018-02-20T16:17:05.461Z,36.47
2018-02-20T16:19:33.817Z,34.70
2018-02-20T16:22:02.171Z,39.20
2018-02-20T16:24:30.548Z,38.67
2018-02-20T16:26:58.902Z,34.20
2018-02-20T16:29:27.316Z,36.53
2018-02-20T16:31:55.651Z,33.13
2018-02-20T16:34:24.036Z,33.97
2018-02-20T16:36:52.422Z,36.50
2018-02-20T16:39:20.878Z,33.57
2018-02-20T16:41:49.227Z,37.17
2018-02-20T16:44:17.642Z,37.87
2018-02-20T16:46:46.028Z,34.87
2018-02-20T16:49:14.421Z,35.63
2018-02-20T16:51:42.793Z,35.93
2018-02-20T16:54:11.155Z,32.80
2018-02-20T16:56:39.537Z,30.50
2018-02-20T16:59:07.941Z,28.03
2018-02-20T17:01:36.403Z,26.93
2018-02-20T17:04:04.753Z,26.83
2018-02-20T17:06:33.139Z,26.30
2018-02-20T17:09:01.518Z,24.30
2018-02-20T17:11:29.959Z,29.00
2018-02-20T17:13:58.320Z,26.87
2018-02-20T17:16:26.686Z,25.07
2018-02-20T17:18:55.070Z,26.37
2018-02-20T17:21:23.432Z,26.90
2018-02-20T17:23:51.808Z,25.67
2018-02-20T17:26:20.170Z,29.87
2018-02-20T17:28:48.551Z,31.83
2018-02-20T17:31:16.936Z,30.40
2018-02-20T17:33:45.299Z,33.60
2018-02-20T17:36:13.663Z,32.83
2018-02-20T17:38:42.003Z,32.50
2018-02-20T17:41:10.385Z,36.83
2018-02-20T17:43:38.727Z,37.20
2018-02-20T17:46:07.075Z,38.87
2018-02-20T17:48:35.469Z,38.33
2018-02-20T17:51:03.829Z,38.80
2018-02-20T17:53:32.180Z,41.00
2018-02-20T17:56:00.546Z,37.73
2018-02-20T17:58:28.900Z,38.77
2018-02-20T18:00:57.249Z,41.87
2018-02-20T18:03:25.642Z,42.37
2018-02-20T18:05:53.996Z,40.43
2018-02-20T18:08:22.341Z,38.10
2018-02-20T18:10:50.709Z,40.60
2018-02-20T18:13:19.069Z,37.77
2018-02-20T18:15:47.421Z,39.77
2018-02-20T18:18:15.787Z,37.00
2018-02-20T18:20:44.137Z,40.70
2018-02-20T18:23:12.479Z,39.50
2018-02-20T18:25:40.848Z,38.07
2018-02-20T18:28:09.215Z,32.00
2018-02-20T18:30:37.570Z,35.30
2018-02-20T18:33:05.992Z,35.57
2018-02-20T18:35:34.343Z,31.87
2018-02-20T18:38:02.722Z,34.57
2018-02-20T18:40:31.086Z,32.77
2018-02-20T18:42:59.433Z,31.13
2018-02-20T18:45:27.795Z,36.03
2018-02-20T18:47:56.227Z,34.47
2018-02-20T18:50:24.645Z,36.10
2018-02-20T18:52:52.995Z,35.57
2018-02-20T18:55:21.399Z,32.67
2018-02-20T18:57:49.742Z,34.70
2018-02-20T19:00:18.089Z,35.47
2018-02-20T19:02:46.473Z,33.23
2018-02-20T19:05:14.820Z,33.37
2018-02-20T19:07:43.192Z,33.47
2018-02-20T19:10:11.554Z,35.70
2018-02-20T19:12:39.913Z,38.10
2018-02-20T19:15:08.274Z,34.83
2018-02-20T19:17:36.621Z,37.83
2018-02-20T19:20:05.072Z,39.43
2018-02-20T19:22:33.434Z,39.00
2018-02-20T19:25:01.818Z,36.60
2018-02-20T19:27:30.216Z,39.13
2018-02-20T19:29:58.594Z,37.90
2018-02-20T19:32:26.949Z,38.23
2018-02-20T19:34:55.349Z,37.40
2018-02-20T19:37:23.707Z,36.63
2018-02-20T19:39:52.091Z,38.40
2018-02-20T19:42:20.438Z,36.60
2018-02-20T19:44:48.819Z,35.80
2018-02-20T19:47:17.174Z,33.70
2018-02-20T19:49:45.517Z,33.60
2018-02-20T19:52:13.899Z,37.07
2018-02-20T19:54:42.263Z,37.27
2018-02-20T19:57:10.612Z,35.93
2018-02-20T19:59:38.976Z,36.33
2018-02-20T20:02:07.320Z,37.40
2018-02-20T20:04:35.678Z,37.57
2018-02-20T20:07:04.032Z,34.60
2018-02-20T20:09:32.382Z,36.03
2018-02-20T20:12:00.733Z,37.73
2018-02-20T20:14:29.182Z,35.77
2018-02-20T20:16:57.534Z,35.00
2018-02-20T20:19:25.887Z,34.80
2018-02-20T20:21:54.331Z,34.73
2018-02-20T20:24:22.679Z,36.00
2018-02-20T20:26:51.039Z,34.80
2018-02-20T20:29:19.391Z,34.63
2018-02-20T20:31:47.846Z,34.87
2018-02-20T20:34:16.189Z,38.40
2018-02-20T20:36:44.546Z,37.80
2018-02-20T20:39:12.895Z,35.83
2018-02-20T20:41:41.274Z,37.70
2018-02-20T20:44:09.650Z,37.80
2018-02-20T20:46:38.014Z,38.10
2018-02-20T20:49:06.374Z,37.63
2018-02-20T20:51:34.745Z,37.30
2018-02-20T20:54:03.108Z,36.40
2018-02-20T20:56:31.460Z,38.60
2018-02-20T20:58:59.816Z,41.27
2018-02-20T21:01:28.185Z,42.53
2018-02-20T21:03:56.546Z,39.60
2018-02-20T21:06:24.910Z,38.67
2018-02-20T21:08:53.274Z,41.23
2018-02-20T21:11:21.648Z,45.63
2018-02-20T21:13:50.059Z,46.30
2018-02-20T21:16:18.457Z,38.87
2018-02-20T21:18:46.832Z,39.23
2018-02-20T21:21:15.188Z,39.10
2018-02-20T21:23:43.561Z,40.13
2018-02-20T21:26:11.912Z,38.40
2018-02-20T21:28:40.276Z,41.70
2018-02-20T21:31:08.746Z,39.13
2018-02-20T21:33:37.114Z,39.90
2018-02-20T21:36:05.583Z,41.93
2018-02-20T21:38:33.955Z,38.80
2018-02-20T21:41:02.319Z,41.20
2018-02-20T21:43:30.818Z,40.70
2018-02-20T21:45:59.210Z,40.67
2018-02-20T21:48:27.564Z,38.83
2018-02-20T21:50:55.922Z,42.03
2018-02-20T21:53:24.318Z,42.37
2018-02-20T21:55:52.671Z,43.10
2018-02-20T21:58:21.051Z,40.87
2018-02-20T22:00:49.415Z,40.20
2018-02-20T22:03:17.780Z,43.90
2018-02-20T22:05:46.143Z,41.40
2018-02-20T22:08:14.508Z,40.27
2018-02-20T22:10:42.861Z,42.40
2018-02-20T22:13:11.230Z,42.80
2018-02-20T22:15:39.576Z,39.70
2018-02-20T22:18:08.041Z,42.40
2018-02-20T22:20:36.395Z,41.80
2018-02-20T22:23:04.759Z,44.27
2018-02-20T22:25:33.141Z,43.17
2018-02-20T22:28:01.511Z,43.20
2018-02-20T22:30:29.867Z,44.20
2018-02-20T22:32:58.258Z,42.40
2018-02-20T22:35:26.607Z,39.93
2018-02-20T22:37:54.978Z,38.40
2018-02-20T22:40:23.421Z,43.07
2018-02-20T22:42:51.778Z,38.53
2018-02-20T22:45:20.135Z,40.60
2018-02-20T22:47:48.535Z,38.43
2018-02-20T22:50:16.885Z,39.07
2018-02-20T22:52:45.258Z,36.40
2018-02-20T22:55:13.608Z,35.93
2018-02-20T22:57:41.963Z,34.93
2018-02-20T23:00:10.315Z,36.87
2018-02-20T23:02:38.687Z,39.07
2018-02-20T23:05:07.023Z,38.00
2018-02-20T23:07:35.877Z,35.90
2018-02-20T23:10:04.225Z,37.33
2018-02-20T23:12:32.571Z,37.00
2018-02-20T23:15:00.950Z,36.67
2018-02-20T23:17:29.306Z,38.30
2018-02-20T23:19:57.770Z,40.40
2018-02-20T23:22:26.115Z,35.80
2018-02-20T23:24:54.482Z,36.67
2018-02-20T23:27:22.843Z,56.00
2018-02-20T23:29:51.210Z,41.37
2018-02-20T23:32:19.590Z,37.43
2018-02-20T23:34:47.930Z,39.60
2018-02-20T23:37:16.833Z,38.60
2018-02-20T23:39:45.186Z,40.03
2018-02-20T23:42:13.570Z,40.73
2018-02-20T23:44:43.874Z,38.60
2018-02-20T23:47:12.294Z,38.97
2018-02-20T23:49:40.647Z,38.67
2018-02-20T23:52:09.028Z,38.83
2018-02-20T23:54:37.422Z,37.10
2018-02-20T23:57:05.808Z,36.33
2018-02-20T23:59:34.176Z,37.60
